createdAt,value
2018-12-18T00:00:49.037Z,2.15
2018-12-18T00:03:17.073Z,2.12
2018-12-18T00:05:45.384Z,2.08
2018-12-18T00:08:13.410Z,2.10
2018-12-18T00:10:46.509Z,2.17
2018-12-18T00:13:14.525Z,2.09
2018-12-18T00:15:42.530Z,2.15
2018-12-18T00:18:10.552Z,2.12
2018-12-18T00:20:38.571Z,2.10
2018-12-18T00:23:06.575Z,2.17
2018-12-18T00:25:34.523Z,2.23
2018-12-18T00:28:03.042Z,2.24
2018-12-18T00:30:31.033Z,2.16
2018-12-18T00:32:59.075Z,2.17
2018-12-18T00:35:27.130Z,2.20
2018-12-18T00:37:55.294Z,2.26
2018-12-18T00:40:23.472Z,2.17
2018-12-18T00:42:51.729Z,2.25
2018-12-18T00:45:19.963Z,2.22
2018-12-18T00:47:48.073Z,2.17
2018-12-18T00:50:16.650Z,2.20
2018-12-18T00:52:44.618Z,2.19
2018-12-18T00:55:12.639Z,2.25
2018-12-18T00:57:40.599Z,2.29
2018-12-18T01:00:09.251Z,2.35
2018-12-18T01:02:37.319Z,2.31
2018-12-18T01:05:06.341Z,2.24
2018-12-18T01:07:34.405Z,2.21
2018-12-18T01:10:02.420Z,2.21
2018-12-18T01:12:31.119Z,2.29
2018-12-18T01:14:59.236Z,2.31
2018-12-18T01:17:28.026Z,2.29
2018-12-18T01:19:56.140Z,2.28
2018-12-18T01:22:24.085Z,2.34
2018-12-18T01:24:52.403Z,2.35
2018-12-18T01:27:20.387Z,2.37
2018-12-18T01:29:48.355Z,2.39
2018-12-18T01:32:16.739Z,2.29
2018-12-18T01:34:45.636Z,2.30
2018-12-18T01:37:13.637Z,2.38
2018-12-18T01:39:41.603Z,2.32
2018-12-18T01:42:09.793Z,2.38
2018-12-18T01:44:38.333Z,2.28
2018-12-18T01:47:06.278Z,2.35
2018-12-18T01:49:34.290Z,2.32
2018-12-18T01:52:02.567Z,2.22
2018-12-18T01:54:30.525Z,2.22
2018-12-18T01:56:58.640Z,2.28
2018-12-18T01:59:26.804Z,2.21
2018-12-18T02:01:54.806Z,2.24
2018-12-18T02:04:22.798Z,2.23
2018-12-18T02:06:50.809Z,2.23
2018-12-18T02:09:18.751Z,2.24
2018-12-18T02:11:47.012Z,2.24
2018-12-18T02:14:14.950Z,2.22
2018-12-18T02:16:42.934Z,2.35
2018-12-18T02:19:10.902Z,2.35
2018-12-18T02:21:39.189Z,2.40
2018-12-18T02:24:07.210Z,2.39
2018-12-18T02:26:36.882Z,2.42
2018-12-18T02:29:04.846Z,2.44
2018-12-18T02:31:32.819Z,2.39
2018-12-18T02:34:00.819Z,2.38
2018-12-18T02:36:28.806Z,2.37
2018-12-18T02:38:56.848Z,2.41
2018-12-18T02:41:24.837Z,2.41
2018-12-18T02:43:52.795Z,2.49
2018-12-18T02:46:20.752Z,2.49
2018-12-18T02:48:48.716Z,2.59
2018-12-18T02:51:16.697Z,2.57
2018-12-18T02:53:44.652Z,2.49
2018-12-18T02:56:12.631Z,2.49
2018-12-18T02:58:40.683Z,2.55
2018-12-18T03:01:09.194Z,2.55
2018-12-18T03:03:37.452Z,2.55
2018-12-18T03:06:05.422Z,2.56
2018-12-18T03:08:33.420Z,2.52
2018-12-18T03:11:01.404Z,2.53
2018-12-18T03:13:29.363Z,2.49
2018-12-18T03:15:57.515Z,2.57
2018-12-18T03:18:25.503Z,2.54
2018-12-18T03:20:53.469Z,2.55
2018-12-18T03:23:22.111Z,2.50
2018-12-18T03:25:50.276Z,2.52
2018-12-18T03:28:18.253Z,2.49
2018-12-18T03:30:46.248Z,2.49
2018-12-18T03:33:14.305Z,2.44
2018-12-18T03:35:42.267Z,2.47
2018-12-18T03:38:10.235Z,2.46
2018-12-18T03:40:42.656Z,2.53
2018-12-18T03:43:10.786Z,2.55
2018-12-18T03:45:38.750Z,2.62
2018-12-18T03:48:06.780Z,2.53
2018-12-18T03:50:34.737Z,2.50
2018-12-18T03:53:02.885Z,2.52
2018-12-18T03:55:30.841Z,2.58
2018-12-18T03:57:58.953Z,2.56
2018-12-18T04:00:26.922Z,2.56
2018-12-18T04:02:54.889Z,2.50
2018-12-18T04:05:23.097Z,2.59
2018-12-18T04:07:51.414Z,2.53
2018-12-18T04:10:19.385Z,2.58
2018-12-18T04:12:47.784Z,2.55
2018-12-18T04:15:15.869Z,2.57
2018-12-18T04:17:43.827Z,2.59
2018-12-18T04:20:11.807Z,2.55
2018-12-18T04:22:39.778Z,2.66
2018-12-18T04:25:07.927Z,2.71
2018-12-18T04:27:35.915Z,2.76
2018-12-18T04:32:38.314Z,2.75
2018-12-18T04:35:06.307Z,2.70
2018-12-18T04:37:34.270Z,2.67
2018-12-18T04:40:02.504Z,2.66
2018-12-18T04:42:30.568Z,2.72
2018-12-18T04:44:58.530Z,2.75
2018-12-18T04:47:26.548Z,2.79
2018-12-18T04:49:54.517Z,2.84
2018-12-18T04:52:22.520Z,2.71
2018-12-18T04:54:50.950Z,2.75
2018-12-18T04:57:19.006Z,2.70
2018-12-18T04:59:47.063Z,2.67
2018-12-18T05:02:15.558Z,2.68
2018-12-18T05:04:49.979Z,2.67
2018-12-18T05:07:14.079Z,2.70
2018-12-18T05:09:42.112Z,2.68
2018-12-18T05:12:10.153Z,2.69
2018-12-18T05:14:38.231Z,2.75
2018-12-18T05:17:06.238Z,2.70
2018-12-18T05:19:34.294Z,2.85
2018-12-18T05:22:02.263Z,2.78
2018-12-18T05:24:30.221Z,2.78
2018-12-18T05:26:58.206Z,2.79
2018-12-18T05:29:26.173Z,2.82
2018-12-18T05:31:54.186Z,2.79
2018-12-18T05:34:23.054Z,2.86
2018-12-18T05:36:51.015Z,2.87
2018-12-18T05:39:19.020Z,2.82
2018-12-18T05:41:47.008Z,2.81
2018-12-18T05:44:15.098Z,2.88
2018-12-18T05:46:43.030Z,2.85
2018-12-18T05:49:11.500Z,2.79
2018-12-18T05:51:39.915Z,2.83
2018-12-18T05:54:07.897Z,2.81
2018-12-18T05:56:35.873Z,2.79
2018-12-18T05:59:03.843Z,2.80
2018-12-18T06:01:32.233Z,2.82
2018-12-18T06:04:00.215Z,2.82
2018-12-18T06:06:28.249Z,2.84
2018-12-18T06:08:56.213Z,2.85
2018-12-18T06:11:24.219Z,2.93
2018-12-18T06:13:52.197Z,2.86
2018-12-18T06:16:20.205Z,2.85
2018-12-18T06:18:48.269Z,2.88
2018-12-18T06:21:16.212Z,2.84
2018-12-18T06:23:44.175Z,2.89
2018-12-18T06:26:12.158Z,2.93
2018-12-18T06:28:40.174Z,2.85
2018-12-18T06:31:08.264Z,2.88
2018-12-18T06:33:36.218Z,2.86
2018-12-18T06:36:04.213Z,2.88
2018-12-18T06:38:32.332Z,2.91
2018-12-18T06:41:00.315Z,2.88
2018-12-18T06:43:28.274Z,2.95
2018-12-18T06:45:56.248Z,2.94
2018-12-18T06:48:25.659Z,2.96
2018-12-18T06:50:53.803Z,2.90
2018-12-18T06:53:21.739Z,2.97
2018-12-18T06:55:49.731Z,3.05
2018-12-18T06:58:17.730Z,3.05
2018-12-18T07:00:45.711Z,2.98
2018-12-18T07:03:13.676Z,3.01
2018-12-18T07:05:41.638Z,2.99
2018-12-18T07:08:09.596Z,2.97
2018-12-18T07:10:37.640Z,3.46
2018-12-18T07:13:05.970Z,3.29
2018-12-18T07:15:33.937Z,3.27
2018-12-18T07:18:01.922Z,3.13
2018-12-18T07:20:29.897Z,3.18
2018-12-18T07:22:59.359Z,3.13
2018-12-18T07:25:27.305Z,3.20
2018-12-18T07:27:55.270Z,3.15
2018-12-18T07:30:23.259Z,3.23
2018-12-18T07:32:51.232Z,3.16
2018-12-18T07:35:23.227Z,3.16
2018-12-18T07:37:49.161Z,3.31
2018-12-18T07:40:17.113Z,3.29
2018-12-18T07:42:45.106Z,3.27
2018-12-18T07:45:13.119Z,3.28
2018-12-18T07:47:41.124Z,3.27
2018-12-18T07:50:09.099Z,3.21
2018-12-18T07:52:37.062Z,3.25
2018-12-18T07:55:05.099Z,3.41
2018-12-18T07:57:33.098Z,3.35
2018-12-18T08:00:01.046Z,3.36
2018-12-18T08:02:29.205Z,3.35
2018-12-18T08:04:57.295Z,3.31
2018-12-18T08:07:25.375Z,3.30
2018-12-18T08:09:53.336Z,3.30
2018-12-18T08:12:23.280Z,3.48
2018-12-18T08:14:51.332Z,3.39
2018-12-18T08:17:19.315Z,3.48
2018-12-18T08:19:48.180Z,3.41
2018-12-18T08:22:16.179Z,3.41
2018-12-18T08:24:44.140Z,3.41
2018-12-18T08:27:12.101Z,3.52
2018-12-18T08:29:40.077Z,3.42
2018-12-18T08:32:09.543Z,3.49
2018-12-18T08:34:37.806Z,3.54
2018-12-18T08:37:05.976Z,3.60
2018-12-18T08:39:33.956Z,3.58
2018-12-18T08:42:01.928Z,3.48
2018-12-18T08:44:29.889Z,3.49
2018-12-18T08:46:57.891Z,3.61
2018-12-18T08:49:25.927Z,3.56
2018-12-18T08:51:53.877Z,3.63
2018-12-18T08:54:21.883Z,3.76
2018-12-18T08:56:49.869Z,3.80
2018-12-18T08:59:17.857Z,3.79
2018-12-18T09:01:45.960Z,3.83
2018-12-18T09:04:13.909Z,3.89
2018-12-18T09:06:41.885Z,3.90
2018-12-18T09:09:09.847Z,3.95
2018-12-18T09:11:37.844Z,3.98
2018-12-18T09:14:05.876Z,4.02
2018-12-18T09:16:39.405Z,4.03
2018-12-18T09:19:07.379Z,4.10
2018-12-18T09:21:35.442Z,4.12
2018-12-18T09:24:03.479Z,4.15
2018-12-18T09:26:31.449Z,4.21
2018-12-18T09:28:59.414Z,4.19
2018-12-18T09:31:27.379Z,4.16
2018-12-18T09:33:55.358Z,4.28
2018-12-18T09:36:23.317Z,4.28
2018-12-18T09:42:00.977Z,4.35
2018-12-18T09:44:29.687Z,4.37
2018-12-18T09:46:57.725Z,4.43
2018-12-18T09:49:25.920Z,4.56
2018-12-18T09:51:54.001Z,4.50
2018-12-18T09:54:21.930Z,4.43
2018-12-18T09:56:51.333Z,4.56
2018-12-18T09:59:19.286Z,4.54
2018-12-18T10:01:47.373Z,4.69
2018-12-18T10:04:15.551Z,4.63
2018-12-18T10:06:45.034Z,4.71
2018-12-18T10:09:13.407Z,4.81
2018-12-18T10:11:41.372Z,4.75
2018-12-18T10:14:09.333Z,4.72
2018-12-18T10:16:37.378Z,4.86
2018-12-18T10:19:05.341Z,4.90
2018-12-18T10:21:33.345Z,4.79
2018-12-18T10:24:01.310Z,4.86
2018-12-18T10:26:29.289Z,4.90
2018-12-18T10:28:57.240Z,4.95
2018-12-18T10:31:26.012Z,5.00
2018-12-18T10:33:53.958Z,5.04
2018-12-18T10:36:21.909Z,5.12
2018-12-18T10:38:50.589Z,5.03
2018-12-18T10:41:18.603Z,5.10
2018-12-18T10:43:46.555Z,5.23
2018-12-18T10:46:14.582Z,5.05
2018-12-18T10:48:42.498Z,5.04
2018-12-18T10:51:10.462Z,5.16
2018-12-18T10:53:38.838Z,5.08
2018-12-18T10:56:06.918Z,5.23
2018-12-18T10:58:34.873Z,5.23
2018-12-18T11:01:08.373Z,5.35
2018-12-18T11:03:37.255Z,5.40
2018-12-18T11:06:09.748Z,5.33
2018-12-18T11:08:35.127Z,5.37
2018-12-18T11:11:04.217Z,5.48
2018-12-18T11:13:32.755Z,5.48
2018-12-18T11:16:00.715Z,5.42
2018-12-18T11:18:29.186Z,5.50
2018-12-18T11:20:57.165Z,5.43
2018-12-18T11:23:25.694Z,5.46
2018-12-18T11:25:53.909Z,5.40
2018-12-18T11:28:21.850Z,5.45
2018-12-18T11:30:49.836Z,5.55
2018-12-18T11:33:17.813Z,5.60
2018-12-18T11:35:45.731Z,5.65
2018-12-18T11:38:14.088Z,5.66
2018-12-18T11:40:42.101Z,5.75
2018-12-18T11:43:10.062Z,5.69
2018-12-18T11:45:38.026Z,5.75
2018-12-18T11:48:06.013Z,5.79
2018-12-18T11:50:33.998Z,5.82
2018-12-18T11:53:01.959Z,5.83
2018-12-18T11:55:29.915Z,5.77
2018-12-18T11:57:57.884Z,5.82
2018-12-18T12:00:25.956Z,5.71
2018-12-18T12:02:53.969Z,5.79
2018-12-18T12:05:21.995Z,5.78
2018-12-18T12:07:49.983Z,5.94
2018-12-18T12:10:18.674Z,5.94
2018-12-18T12:12:46.634Z,5.97
2018-12-18T12:15:14.849Z,5.93
2018-12-18T12:17:42.863Z,5.95
2018-12-18T12:20:11.043Z,5.96
2018-12-18T12:22:38.954Z,6.00
2018-12-18T12:25:08.162Z,6.10
2018-12-18T12:30:34.625Z,6.09
2018-12-18T12:33:02.611Z,6.14
2018-12-18T12:35:30.586Z,6.25
2018-12-18T12:37:59.441Z,6.20
2018-12-18T12:40:27.422Z,6.15
2018-12-18T12:42:55.365Z,6.16
2018-12-18T12:45:23.451Z,6.27
2018-12-18T12:47:52.268Z,6.31
2018-12-18T12:50:20.412Z,6.34
2018-12-18T12:52:48.357Z,6.36
2018-12-18T12:55:16.358Z,6.29
2018-12-18T12:57:44.318Z,6.19
2018-12-18T13:00:12.319Z,6.22
2018-12-18T13:02:40.424Z,6.37
2018-12-18T13:05:08.478Z,6.27
2018-12-18T13:07:36.445Z,6.25
2018-12-18T13:10:04.926Z,6.30
2018-12-18T13:12:33.839Z,6.29
2018-12-18T13:15:01.825Z,6.41
2018-12-18T13:17:29.837Z,6.38
2018-12-18T13:19:58.438Z,6.23
2018-12-18T13:22:27.820Z,6.30
2018-12-18T13:24:55.785Z,6.28
2018-12-18T13:27:23.799Z,6.34
2018-12-18T13:29:52.125Z,6.35
2018-12-18T13:32:20.100Z,6.27
2018-12-18T13:34:48.059Z,6.37
2018-12-18T13:37:16.206Z,6.68
2018-12-18T13:39:44.157Z,6.78
2018-12-18T13:42:13.019Z,6.64
2018-12-18T13:44:41.845Z,6.67
2018-12-18T13:47:10.392Z,6.59
2018-12-18T13:49:38.348Z,6.56
2018-12-18T13:52:06.298Z,6.48
2018-12-18T13:54:34.270Z,6.37
2018-12-18T13:57:02.233Z,6.37
2018-12-18T13:59:30.202Z,6.35
2018-12-18T14:01:58.169Z,6.25
2018-12-18T14:04:26.130Z,6.21
2018-12-18T14:06:54.166Z,6.29
2018-12-18T14:09:22.102Z,6.21
2018-12-18T14:11:50.097Z,6.15
2018-12-18T14:14:18.179Z,6.17
2018-12-18T14:16:46.376Z,6.16
2018-12-18T14:19:14.367Z,6.17
2018-12-18T14:21:42.503Z,6.22
2018-12-18T14:24:10.534Z,6.24
2018-12-18T14:26:39.167Z,6.10
2018-12-18T14:29:07.206Z,6.12
2018-12-18T14:31:35.177Z,6.10
2018-12-18T14:34:03.182Z,6.08
2018-12-18T14:36:31.169Z,6.09
2018-12-18T14:38:59.166Z,5.94
2018-12-18T14:41:27.116Z,5.86
2018-12-18T14:43:55.105Z,5.86
2018-12-18T14:46:23.061Z,5.80
2018-12-18T14:48:51.025Z,5.85
2018-12-18T14:51:19.013Z,5.70
2018-12-18T14:53:47.783Z,5.87
2018-12-18T14:56:15.851Z,5.84
2018-12-18T14:58:43.803Z,5.78
2018-12-18T15:01:12.479Z,5.93
2018-12-18T15:03:40.524Z,5.85
2018-12-18T15:06:08.529Z,5.87
2018-12-18T15:08:36.574Z,5.81
2018-12-18T15:11:04.547Z,5.82
2018-12-18T15:13:32.517Z,5.71
2018-12-18T15:16:00.462Z,5.67
2018-12-18T15:18:28.562Z,5.68
2018-12-18T15:20:56.496Z,5.60
2018-12-18T15:23:25.960Z,5.63
2018-12-18T15:25:53.909Z,5.68
2018-12-18T15:28:21.916Z,5.60
2018-12-18T15:30:50.083Z,5.60
2018-12-18T15:33:18.034Z,5.53
2018-12-18T15:35:46.119Z,5.75
2018-12-18T15:38:14.106Z,5.60
2018-12-18T15:40:42.245Z,5.64
2018-12-18T15:43:10.235Z,5.69
2018-12-18T15:45:38.370Z,5.78
2018-12-18T15:48:06.434Z,5.67
2018-12-18T15:50:34.415Z,5.70
2018-12-18T15:53:02.423Z,5.68
2018-12-18T15:55:30.459Z,5.77
2018-12-18T15:57:58.430Z,5.78
2018-12-18T16:00:26.516Z,5.70
2018-12-18T16:02:54.510Z,5.76
2018-12-18T16:05:22.529Z,5.77
2018-12-18T16:07:50.502Z,5.74
2018-12-18T16:10:18.478Z,5.75
2018-12-18T16:12:46.587Z,5.71
2018-12-18T16:15:14.539Z,5.71
2018-12-18T16:17:42.514Z,5.80
2018-12-18T16:20:10.926Z,5.77
2018-12-18T16:22:39.215Z,5.68
2018-12-18T16:25:07.215Z,5.70
2018-12-18T16:27:35.243Z,5.79
2018-12-18T16:30:04.039Z,5.71
2018-12-18T16:32:32.066Z,6.02
2018-12-18T16:35:00.199Z,6.40
2018-12-18T16:37:28.309Z,6.25
2018-12-18T16:39:56.232Z,6.45
2018-12-18T16:42:24.199Z,6.09
2018-12-18T16:44:52.250Z,5.95
2018-12-18T16:47:20.214Z,6.00
2018-12-18T16:49:48.178Z,5.94
2018-12-18T16:52:16.143Z,6.02
2018-12-18T16:54:44.107Z,6.01
2018-12-18T16:57:13.365Z,5.91
2018-12-18T16:59:41.527Z,5.89
2018-12-18T17:02:10.966Z,5.76
2018-12-18T17:04:39.247Z,5.72
2018-12-18T17:07:07.450Z,6.05
2018-12-18T17:09:37.012Z,6.04
2018-12-18T17:12:05.141Z,6.26
2018-12-18T17:14:34.076Z,6.05
2018-12-18T17:17:02.535Z,5.95
2018-12-18T17:19:30.575Z,5.70
2018-12-18T17:21:58.903Z,5.72
2018-12-18T17:24:26.892Z,6.02
2018-12-18T17:26:54.850Z,6.07
2018-12-18T17:29:22.794Z,6.16
2018-12-18T17:31:50.769Z,6.20
2018-12-18T17:34:18.994Z,6.16
2018-12-18T17:36:46.930Z,5.97
2018-12-18T17:39:14.919Z,5.83
2018-12-18T17:41:43.603Z,5.76
2018-12-18T17:44:11.562Z,5.66
2018-12-18T17:46:39.522Z,5.64
2018-12-18T17:49:07.707Z,5.72
2018-12-18T17:51:36.569Z,5.64
2018-12-18T17:54:05.036Z,5.70
2018-12-18T17:56:33.071Z,5.59
2018-12-18T17:59:01.094Z,5.64
2018-12-18T18:01:29.384Z,5.45
2018-12-18T18:03:57.361Z,5.43
2018-12-18T18:06:25.427Z,5.43
2018-12-18T18:08:53.382Z,5.39
2018-12-18T18:11:21.382Z,5.37
2018-12-18T18:13:49.397Z,5.37
2018-12-18T18:16:17.358Z,5.40
2018-12-18T18:18:45.348Z,5.72
2018-12-18T18:21:13.323Z,5.72
2018-12-18T18:23:41.318Z,5.87
2018-12-18T18:26:10.447Z,5.81
2018-12-18T18:28:39.436Z,5.83
2018-12-18T18:31:07.676Z,5.93
2018-12-18T18:33:35.630Z,6.09
2018-12-18T18:36:03.704Z,5.99
2018-12-18T18:38:31.765Z,5.94
2018-12-18T18:40:59.785Z,5.79
2018-12-18T18:43:27.789Z,5.52
2018-12-18T18:45:55.806Z,5.47
2018-12-18T18:48:24.318Z,5.41
2018-12-18T18:50:53.761Z,5.39
2018-12-18T18:53:21.866Z,5.39
2018-12-18T18:55:49.879Z,5.27
2018-12-18T18:58:17.902Z,5.27
2018-12-18T19:00:45.901Z,5.34
2018-12-18T19:03:13.867Z,5.21
2018-12-18T19:05:41.930Z,5.19
2018-12-18T19:08:09.914Z,5.27
2018-12-18T19:10:37.844Z,5.23
2018-12-18T19:13:05.888Z,5.40
2018-12-18T19:15:34.462Z,5.32
2018-12-18T19:18:02.429Z,5.27
2018-12-18T19:20:30.454Z,5.30
2018-12-18T19:22:58.426Z,5.32
2018-12-18T19:25:26.639Z,5.32
2018-12-18T19:27:54.581Z,5.28
2018-12-18T19:30:22.623Z,5.35
2018-12-18T19:32:50.646Z,5.23
2018-12-18T19:35:19.968Z,5.82
2018-12-18T19:37:48.426Z,5.50
2018-12-18T19:40:16.403Z,5.39
2018-12-18T19:42:44.362Z,5.33
2018-12-18T19:45:12.450Z,5.34
2018-12-18T19:47:41.353Z,5.22
2018-12-18T19:50:09.430Z,5.30
2018-12-18T19:52:37.399Z,5.18
2018-12-18T19:55:05.450Z,5.19
2018-12-18T19:57:33.414Z,5.13
2018-12-18T20:00:01.828Z,5.15
2018-12-18T20:02:29.798Z,5.02
2018-12-18T20:04:57.755Z,5.01
2018-12-18T20:07:25.729Z,4.93
2018-12-18T20:09:53.677Z,4.78
2018-12-18T20:12:21.634Z,4.81
2018-12-18T20:14:49.598Z,4.82
2018-12-18T20:17:18.334Z,4.83
2018-12-18T20:19:46.390Z,4.65
2018-12-18T20:22:14.399Z,4.61
2018-12-18T20:24:42.370Z,4.66
2018-12-18T20:27:10.323Z,4.68
2018-12-18T20:29:38.659Z,4.66
2018-12-18T20:32:06.619Z,4.60
2018-12-18T20:34:34.682Z,4.65
2018-12-18T20:37:02.862Z,4.83
2018-12-18T20:39:30.821Z,4.72
2018-12-18T20:41:58.903Z,4.69
2018-12-18T20:44:26.856Z,4.74
2018-12-18T20:46:54.827Z,4.64
2018-12-18T20:49:22.823Z,4.66
2018-12-18T20:51:50.787Z,4.72
2018-12-18T20:54:18.795Z,5.51
2018-12-18T20:56:47.083Z,5.66
2018-12-18T20:59:15.951Z,5.76
2018-12-18T21:01:43.893Z,5.77
2018-12-18T21:04:11.878Z,5.91
2018-12-18T21:06:39.910Z,6.00
2018-12-18T21:09:09.443Z,6.00
2018-12-18T21:11:38.295Z,5.67
2018-12-18T21:14:06.283Z,5.33
2018-12-18T21:16:34.303Z,5.24
2018-12-18T21:19:02.266Z,5.13
2018-12-18T21:21:30.213Z,5.12
2018-12-18T21:23:58.217Z,4.92
2018-12-18T21:26:26.247Z,4.97
2018-12-18T21:28:54.498Z,4.92
2018-12-18T21:31:22.500Z,4.76
2018-12-18T21:33:50.482Z,5.24
2018-12-18T21:36:20.191Z,5.39
2018-12-18T21:38:48.154Z,4.96
2018-12-18T21:41:16.127Z,4.87
2018-12-18T21:43:44.154Z,4.72
2018-12-18T21:46:12.122Z,4.56
2018-12-18T21:48:40.157Z,4.53
2018-12-18T21:51:08.162Z,4.44
2018-12-18T21:53:36.196Z,4.37
2018-12-18T21:56:04.450Z,4.38
2018-12-18T21:58:32.533Z,4.35
2018-12-18T22:01:00.563Z,4.30
2018-12-18T22:03:28.649Z,4.29
2018-12-18T22:05:56.637Z,4.27
2018-12-18T22:08:24.715Z,4.30
2018-12-18T22:10:52.773Z,4.29
2018-12-18T22:13:20.817Z,4.19
2018-12-18T22:15:48.914Z,4.18
2018-12-18T22:18:16.935Z,4.19
2018-12-18T22:20:44.903Z,4.18
2018-12-18T22:23:12.864Z,4.14
2018-12-18T22:25:40.843Z,4.13
2018-12-18T22:28:08.836Z,4.04
2018-12-18T22:30:36.827Z,4.04
2018-12-18T22:33:04.786Z,3.95
2018-12-18T22:35:32.822Z,4.05
2018-12-18T22:38:00.753Z,3.92
2018-12-18T22:40:28.706Z,3.98
2018-12-18T22:42:56.676Z,4.02
2018-12-18T22:45:24.632Z,3.98
2018-12-18T22:47:52.594Z,3.89
2018-12-18T22:50:20.578Z,3.92
2018-12-18T22:52:49.159Z,3.80
2018-12-18T22:55:17.216Z,3.77
2018-12-18T22:57:45.179Z,3.84
2018-12-18T23:00:15.066Z,3.82
2018-12-18T23:02:43.218Z,3.76
2018-12-18T23:05:11.232Z,3.76
2018-12-18T23:07:39.210Z,3.70
2018-12-18T23:10:08.474Z,3.70
2018-12-18T23:12:36.487Z,3.68
2018-12-18T23:15:05.274Z,3.73
2018-12-18T23:17:33.299Z,3.65
2018-12-18T23:20:01.290Z,3.62
2018-12-18T23:22:30.185Z,3.55
2018-12-18T23:24:58.757Z,3.52
2018-12-18T23:27:26.727Z,3.48
2018-12-18T23:29:54.690Z,3.49
2018-12-18T23:32:23.170Z,3.47
2018-12-18T23:34:51.122Z,3.38
2018-12-18T23:37:19.112Z,3.40
2018-12-18T23:39:47.178Z,3.43
2018-12-18T23:42:15.191Z,3.49
2018-12-18T23:44:43.178Z,3.44
2018-12-18T23:47:11.131Z,3.33
2018-12-18T23:49:39.523Z,3.34
2018-12-18T23:52:07.478Z,3.27
2018-12-18T23:54:35.447Z,3.26
2018-12-18T23:57:03.429Z,3.18
2018-12-18T23:59:31.602Z,3.24
